Time;durP1;ratioP1;P1;durP2;ratioP2;P2;SDS_P1;SDS_P2;PMS_P1;PMS_P2;Temp;Humidity;BMP_temperature;BMP_pressure;BME280_temperature;BME280_humidity;BME280_pressure;Samples;Min_cycle;Max_cycle;Signal;HPM_P1;HPM_P2
2023/10/23 00:06:13;;;;;;;;;;;8.80;99.90;;;;;;21409264;27;20346;-79
2023/10/23 00:16:14;;;;;;;;;;;8.80;99.90;;;;;;21394097;27;19953;-79
2023/10/23 00:26:15;;;;;;;;;;;8.70;99.90;;;;;;21413752;27;19915;-80
2023/10/23 00:36:23;;;;;;;;;;;8.70;99.90;;;;;;21314018;27;20540;-79
2023/10/23 00:46:25;;;;;;;;;;;8.60;99.90;;;;;;21312957;27;19919;-79
2023/10/23 00:56:26;;;;;;;;;;;8.50;99.90;;;;;;21312777;27;19918;-80
2023/10/23 01:06:28;;;;;;;;;;;8.60;99.90;;;;;;21332599;27;19919;-80
2023/10/23 01:16:28;;;;;;;;;;;8.70;99.90;;;;;;21339777;27;19915;-80
2023/10/23 01:26:29;;;;;;;;;;;8.80;99.90;;;;;;21327533;27;19915;-79
2023/10/23 01:36:30;;;;;;;;;;;8.70;99.90;;;;;;21339253;27;19943;-79
2023/10/23 01:46:30;;;;;;;;;;;8.60;99.90;;;;;;21338703;27;19942;-81
2023/10/23 01:56:31;;;;;;;;;;;8.60;99.90;;;;;;21332317;27;19911;-80
2023/10/23 02:06:32;;;;;;;;;;;8.50;99.90;;;;;;21327984;27;19973;-80
2023/10/23 02:16:32;;;;;;;;;;;8.40;99.90;;;;;;21326910;27;19917;-80
2023/10/23 02:26:34;;;;;;;;;;;8.40;99.90;;;;;;21331814;27;19978;-79
2023/10/23 02:36:35;;;;;;;;;;;8.40;99.90;;;;;;21323484;27;19911;-80
2023/10/23 02:46:38;;;;;;;;;;;8.40;99.90;;;;;;21334276;27;19938;-79
2023/10/23 02:56:38;;;;;;;;;;;8.40;99.90;;;;;;21323702;27;20001;-81
2023/10/23 03:06:39;;;;;;;;;;;8.40;99.90;;;;;;21331687;27;19915;-79
2023/10/23 03:16:40;;;;;;;;;;;8.20;99.90;;;;;;21328268;27;19915;-80
2023/10/23 03:26:41;;;;;;;;;;;8.20;99.90;;;;;;21331857;27;19997;-81
2023/10/23 03:36:41;;;;;;;;;;;8.30;99.90;;;;;;21322144;27;19912;-79
2023/10/23 03:46:42;;;;;;;;;;;8.40;99.90;;;;;;21322969;27;20320;-79
2023/10/23 03:56:44;;;;;;;;;;;8.30;99.90;;;;;;21316642;27;20327;-79
2023/10/23 04:06:45;;;;;;;;;;;8.40;99.90;;;;;;21356908;27;19923;-79
2023/10/23 04:16:46;;;;;;;;;;;8.60;99.90;;;;;;21333137;27;19911;-80
2023/10/23 04:26:46;;;;;;;;;;;8.70;99.90;;;;;;21349304;27;19915;-79
2023/10/23 04:36:47;;;;;;;;;;;8.40;99.90;;;;;;21353077;27;19918;-79
2023/10/23 04:46:48;;;;;;;;;;;8.30;99.90;;;;;;21348663;27;19937;-79
2023/10/23 04:56:48;;;;;;;;;;;8.30;99.90;;;;;;21346289;27;19915;-79
2023/10/23 05:06:49;;;;;;;;;;;8.30;99.90;;;;;;21349533;27;19960;-79
2023/10/23 05:16:50;;;;;;;;;;;8.40;99.90;;;;;;21337199;27;19911;-80
2023/10/23 05:26:50;;;;;;;;;;;8.50;99.90;;;;;;21352652;27;19915;-79
2023/10/23 05:36:51;;;;;;;;;;;8.40;99.90;;;;;;21427506;27;20004;-79
2023/10/23 05:46:51;;;;;;;;;;;8.40;99.90;;;;;;21432375;27;19920;-80
2023/10/23 05:56:52;;;;;;;;;;;8.40;99.90;;;;;;21433257;27;19911;-80
2023/10/23 06:06:53;;;;;;;;;;;8.50;99.90;;;;;;21423233;27;19990;-80
2023/10/23 06:16:53;;;;;;;;;;;8.50;99.90;;;;;;21429015;27;19911;-79
2023/10/23 06:26:54;;;;;;;;;;;8.60;99.90;;;;;;21424498;27;19916;-79
2023/10/23 06:36:56;;;;;;;;;;;8.70;99.90;;;;;;21330191;27;19917;-79
2023/10/23 06:46:56;;;;;;;;;;;8.80;99.90;;;;;;21340437;27;19911;-80
2023/10/23 06:56:57;;;;;;;;;;;8.80;99.90;;;;;;21350973;27;19912;-79
2023/10/23 07:06:58;;;;;;;;;;;9.00;99.90;;;;;;21354719;27;19987;-80
2023/10/23 07:16:58;;;;;;;;;;;9.00;99.90;;;;;;21339808;27;19994;-80
2023/10/23 07:26:59;;;;;;;;;;;9.10;99.90;;;;;;21332875;27;19922;-80
2023/10/23 07:37:00;;;;;;;;;;;9.00;99.90;;;;;;21245570;27;19957;-80
2023/10/23 07:47:00;;;;;;;;;;;9.10;99.90;;;;;;21260574;27;19978;-79
2023/10/23 07:57:01;;;;;;;;;;;9.40;99.90;;;;;;21263393;27;19912;-79
2023/10/23 08:07:02;;;;;;;;;;;9.60;99.90;;;;;;21267670;27;19916;-80
2023/10/23 08:17:02;;;;;;;;;;;9.50;99.90;;;;;;21266408;27;19919;-80
2023/10/23 08:27:03;;;;;;;;;;;9.70;99.90;;;;;;21284673;27;19915;-81
2023/10/23 08:37:04;;;;;;;;;;;10.00;99.90;;;;;;21350937;27;19912;-80
2023/10/23 08:47:04;;;;;;;;;;;10.30;99.90;;;;;;21348718;27;19919;-80
2023/10/23 08:57:06;;;;;;;;;;;10.40;99.90;;;;;;21324169;27;19916;-78
2023/10/23 09:07:06;;;;;;;;;;;10.40;99.90;;;;;;21326172;27;19957;-79
2023/10/23 09:17:07;;;;;;;;;;;10.40;99.90;;;;;;21344625;27;19912;-81
2023/10/23 09:27:08;;;;;;;;;;;10.40;99.90;;;;;;21332551;27;19919;-80
2023/10/23 09:37:09;;;;;;;;;;;10.50;99.90;;;;;;21330743;27;19915;-79
2023/10/23 09:47:10;;;;;;;;;;;10.70;99.90;;;;;;21327006;27;20447;-79
2023/10/23 09:57:13;;;;;;;;;;;10.60;99.90;;;;;;21323344;27;20366;-80
2023/10/23 10:07:16;;;;;;;;;;;10.70;99.90;;;;;;21321353;27;19941;-79
2023/10/23 10:17:20;;;;;;;;;;;10.50;99.90;;;;;;21346144;27;19964;-80
2023/10/23 10:27:21;;;;;;;;;;;10.50;99.90;;;;;;21346897;27;19916;-81
2023/10/23 10:37:23;;;;;;;;;;;10.60;99.90;;;;;;21343779;27;19956;-80
2023/10/23 10:47:53;;;;;;;;;;;10.50;99.90;;;;;;21329613;27;19984;-78
2023/10/23 10:57:54;;;;;;;;;;;10.50;99.90;;;;;;21315093;27;20008;-80
2023/10/23 11:07:55;;;;;;;;;;;10.70;99.90;;;;;;21325678;27;19919;-79
2023/10/23 11:17:56;;;;;;;;;;;11.20;99.90;;;;;;21312628;27;20354;-80
2023/10/23 11:27:56;;;;;;;;;;;11.70;99.90;;;;;;21340714;27;20279;-78
2023/10/23 11:37:57;;;;;;;;;;;12.00;99.90;;;;;;21344506;27;19990;-80
2023/10/23 11:47:58;;;;;;;;;;;12.00;99.90;;;;;;21339125;27;19924;-79
2023/10/23 11:57:58;;;;;;;;;;;12.80;99.90;;;;;;21345931;27;19942;-80
2023/10/23 12:07:59;;;;;;;;;;;12.90;99.90;;;;;;21354920;27;19921;-80
2023/10/23 12:18:03;;;;;;;;;;;12.80;99.90;;;;;;21320306;27;19915;-81
2023/10/23 12:28:03;;;;;;;;;;;12.90;99.90;;;;;;21342565;27;19937;-80
2023/10/23 12:38:04;;;;;;;;;;;13.00;99.90;;;;;;21298495;27;19912;-80
2023/10/23 12:48:05;;;;;;;;;;;13.30;99.90;;;;;;21337967;27;19919;-80
2023/10/23 12:58:06;;;;;;;;;;;13.50;99.90;;;;;;21322829;27;19919;-82
2023/10/23 13:08:06;;;;;;;;;;;13.90;99.90;;;;;;21317699;27;19916;-82
2023/10/23 13:18:07;;;;;;;;;;;14.00;99.90;;;;;;21344647;27;19969;-80
2023/10/23 13:28:08;;;;;;;;;;;14.00;99.90;;;;;;21333761;27;19916;-82
2023/10/23 13:38:09;;;;;;;;;;;14.10;99.90;;;;;;21348260;27;19938;-82
2023/10/23 13:48:09;;;;;;;;;;;14.30;99.90;;;;;;21324916;27;19915;-80
2023/10/23 13:58:10;;;;;;;;;;;14.60;99.90;;;;;;21332746;27;19918;-82
2023/10/23 14:08:12;;;;;;;;;;;14.80;99.90;;;;;;21349294;27;19930;-82
2023/10/23 14:18:15;;;;;;;;;;;14.70;99.90;;;;;;21307390;27;20209;-80
2023/10/23 14:28:15;;;;;;;;;;;14.90;99.90;;;;;;21284545;27;19915;-79
2023/10/23 14:38:16;;;;;;;;;;;15.20;99.90;;;;;;21241643;27;20417;-82
2023/10/23 14:48:18;;;;;;;;;;;16.00;99.90;;;;;;21276750;27;19915;-78
2023/10/23 14:58:19;;;;;;;;;;;16.20;99.90;;;;;;21300097;27;19990;-80
2023/10/23 15:08:19;;;;;;;;;;;16.00;99.90;;;;;;21299978;27;19920;-78
2023/10/23 15:18:20;;;;;;;;;;;15.80;99.90;;;;;;21313452;27;19950;-79
2023/10/23 15:28:21;;;;;;;;;;;15.90;99.90;;;;;;21319612;27;19919;-81
2023/10/23 15:38:24;;;;;;;;;;;15.40;99.90;;;;;;21299856;27;20362;-80
2023/10/23 15:48:25;;;;;;;;;;;14.80;99.90;;;;;;21296561;27;20392;-81
2023/10/23 15:58:26;;;;;;;;;;;14.40;99.90;;;;;;21325267;27;19911;-80
2023/10/23 16:08:27;;;;;;;;;;;14.10;99.90;;;;;;21347096;27;19915;-80
2023/10/23 16:18:28;;;;;;;;;;;13.90;99.90;;;;;;21327010;27;19919;-80
2023/10/23 16:28:29;;;;;;;;;;;13.70;99.90;;;;;;21302802;27;20072;-81
2023/10/23 16:38:30;;;;;;;;;;;13.70;99.90;;;;;;21240644;27;19915;-80
2023/10/23 16:48:30;;;;;;;;;;;13.70;99.90;;;;;;21237815;27;19916;-80
2023/10/23 16:58:31;;;;;;;;;;;13.50;99.90;;;;;;21228650;27;19939;-79
2023/10/23 17:08:32;;;;;;;;;;;13.50;99.90;;;;;;21221409;27;19966;-79
2023/10/23 17:18:32;;;;;;;;;;;13.50;99.90;;;;;;21214709;27;19953;-81
2023/10/23 17:28:33;;;;;;;;;;;13.50;99.90;;;;;;21253467;27;19922;-80
2023/10/23 17:38:35;;;;;;;;;;;13.40;99.90;;;;;;21366169;27;19911;-80
2023/10/23 17:48:36;;;;;;;;;;;13.40;99.90;;;;;;21372096;27;19950;-80
2023/10/23 17:58:37;;;;;;;;;;;13.30;99.90;;;;;;21349080;27;19918;-80
2023/10/23 18:08:38;;;;;;;;;;;13.20;99.90;;;;;;21386996;27;19915;-80
2023/10/23 18:18:39;;;;;;;;;;;13.10;99.90;;;;;;21370981;27;19911;-79
2023/10/23 18:28:40;;;;;;;;;;;12.60;99.90;;;;;;21322071;27;19920;-80
2023/10/23 18:38:41;;;;;;;;;;;12.50;99.90;;;;;;21187861;27;20267;-81
2023/10/23 18:48:42;;;;;;;;;;;12.40;99.90;;;;;;21187917;27;19916;-79
2023/10/23 18:58:43;;;;;;;;;;;12.30;99.90;;;;;;21187171;28;19918;-80
2023/10/23 19:08:43;;;;;;;;;;;12.30;99.90;;;;;;21192110;28;19968;-80
2023/10/23 19:18:44;;;;;;;;;;;12.40;99.90;;;;;;21177047;28;19957;-80
2023/10/23 19:28:45;;;;;;;;;;;12.30;99.90;;;;;;21208935;27;20452;-80
2023/10/23 19:38:46;;;;;;;;;;;12.00;99.90;;;;;;21282988;27;19919;-80
2023/10/23 19:48:48;;;;;;;;;;;11.60;99.90;;;;;;21286082;27;19915;-80
2023/10/23 19:58:48;;;;;;;;;;;11.50;99.90;;;;;;21290154;27;19911;-78
2023/10/23 20:08:49;;;;;;;;;;;11.50;99.90;;;;;;21279619;27;19997;-79
2023/10/23 20:18:50;;;;;;;;;;;11.20;99.90;;;;;;21291326;27;19960;-79
2023/10/23 20:28:50;;;;;;;;;;;11.10;99.90;;;;;;21272618;27;19923;-79
2023/10/23 20:38:51;;;;;;;;;;;11.10;99.90;;;;;;21199184;27;19919;-79
2023/10/23 20:48:52;;;;;;;;;;;11.00;99.90;;;;;;21203064;27;19922;-79
2023/10/23 20:58:53;;;;;;;;;;;11.00;99.90;;;;;;21195833;27;19912;-79
2023/10/23 21:08:55;;;;;;;;;;;10.90;99.90;;;;;;21196046;27;20010;-79
2023/10/23 21:18:55;;;;;;;;;;;10.70;99.90;;;;;;21195009;27;19919;-79
2023/10/23 21:29:14;;;;;;;;;;;10.50;99.90;;;;;;21209340;27;19915;-78
2023/10/23 21:39:15;;;;;;;;;;;10.50;99.90;;;;;;21297087;27;19911;-78
2023/10/23 21:49:16;;;;;;;;;;;10.60;99.90;;;;;;21263426;27;19960;-79
2023/10/23 21:59:18;;;;;;;;;;;10.50;99.90;;;;;;21256224;27;19951;-79
2023/10/23 22:09:18;;;;;;;;;;;10.20;99.90;;;;;;21287207;27;19915;-81
2023/10/23 22:19:19;;;;;;;;;;;10.20;99.90;;;;;;21313415;27;19932;-80
2023/10/23 22:29:20;;;;;;;;;;;10.30;99.90;;;;;;21317966;27;19954;-80
2023/10/23 22:39:20;;;;;;;;;;;10.10;99.90;;;;;;21320964;27;20286;-80
2023/10/23 22:49:21;;;;;;;;;;;10.00;99.90;;;;;;21328340;27;19958;-80
2023/10/23 22:59:22;;;;;;;;;;;10.10;99.90;;;;;;21315119;27;19933;-79
2023/10/23 23:09:22;;;;;;;;;;;10.30;99.90;;;;;;21316947;27;19915;-80
2023/10/23 23:19:27;;;;;;;;;;;10.40;99.90;;;;;;21337443;27;20023;-81
2023/10/23 23:29:28;;;;;;;;;;;10.40;99.90;;;;;;21316152;27;19915;-79
2023/10/23 23:39:29;;;;;;;;;;;10.30;99.90;;;;;;21234119;27;19926;-79
2023/10/23 23:49:29;;;;;;;;;;;10.40;99.90;;;;;;21237032;27;19930;-80
2023/10/23 23:59:30;;;;;;;;;;;10.30;99.90;;;;;;21252160;27;19951;-80
